New Harbor, ME (Heathkit)

43° 52' 34"N, 69° 29' 40"W, Elevation 65 ft.
Eastern Time

Hourly observations for the last 72 hours

Date Time Temperature (°F) Humi-
dity

(%)
Wind
(mph)
Pressure Rain (in)
Air Dew 6 Hour 1 Hr 3 Hr 6 Hr Day
Alt
(in)
Sea
Level

(mb)
Max Min
17 00:00 22 9 58 SSW 11 G 22 30.02 1016.6 0.00
16 23:00 28 17 62 SSW 9 G 18 29.98 1015.3 0.00
16 22:00 31 21 65 S 10 G 23 29.92 1013.2 0.00
16 21:00 34 28 79 SW 4 G 12 29.87 1011.5 0.00
16 20:00 35 28 75 SW 6 G 12 29.83 1010.2 0.00
16 19:00 35 28 36 30 74 SW 4 G 11 29.81 1009.5 0.00
16 18:00 33 27 77 SW 3 G 10 29.79 1008.8 0.00
16 17:00 33 27 77 SW 5 G 11 29.77 1008.2 0.00
16 16:00 35 27 71 SSW 6 G 10 29.75 1007.5 0.00
16 15:00 36 28 71 SSW 4 G 12 29.75 1007.5 0.00
16 14:00 36 27 69 SW 8 G 17 29.74 1007.1 0.00
16 13:00 35 27 37 30 71 SW 10 G 19 29.73 1006.8 0.00
16 12:00 36 28 73 SSW 9 G 22 29.75 1007.5 0.00
16 11:00 36 30 79 SSW 7 G 23 29.79 1008.8 0.00
16 10:00 35 29 78 SSW 7 G 20 29.83 1010.2 0.00
16 09:00 34 28 78 SSW 6 G 20 29.85 1010.9 0.00
16 08:00 34 28 78 SSW 6 G 22 29.86 1011.2 0.00
16 07:00 33 28 34 27 81 SSW 6 G 18 29.89 1012.2 0.00
16 06:00 33 30 88 SSW 5 G 14 29.89 1012.2 0.00
16 05:00 34 29 81 S 7 G 18 29.88 1011.9 0.00
16 04:00 34 28 80 S 6 G 17 29.90 1012.6 0.00
16 03:00 34 28 78 S 6 G 15 29.92 1013.2 0.00
16 02:00 33 28 83 S 6 G 15 29.94 1013.9 0.00
16 01:00 29 26 29 17 87 SSE 4 G 7 29.95 1014.3 0.00
16 00:00 25 24 94 S 1 G 2 29.97 1014.9 0.00
15 23:00 25 23 93 Calm 30.00 1016.0 0.00
15 22:00 24 22 92 SSE 0 G 1 30.00 1016.0 0.00
15 21:00 22 21 95 SW 0 G 1 30.00 1016.0 0.00
15 20:00 21 19 93 SSE 1 G 2 30.01 1016.3 0.00
15 19:00 22 20 33 21 91 S 3 G 3 30.00 1016.0 0.00
15 18:00 24 21 89 S 1 G 2 29.99 1015.6 0.00
15 17:00 27 23 86 SSE 1 G 2 29.98 1015.3 0.00
15 16:00 30 25 80 S 2 G 3 29.96 1014.6 0.00
15 15:00 32 25 75 SE 3 G 6 29.95 1014.3 0.00
15 14:00 32 23 68 E 2 G 7 29.94 1013.9 0.00
15 13:00 32 22 32 10 66 SW 2 G 6 29.94 1013.9 0.00
15 12:00 30 21 68 SSW 5 G 10 29.95 1014.3 0.00
15 11:00 26 19 73 S 2 G 9 29.97 1014.9 0.00
15 10:00 24 17 75 S 2 G 6 29.98 1015.3 0.00
15 09:00 19 14 82 SW 2 G 4 29.98 1015.3 0.00
15 08:00 15 12 87 SSW 1 G 4 29.97 1014.9 0.00
15 07:00 12 10 15 10 91 ESE 0 G 1 29.97 1014.9 0.00
15 06:00 14 11 88 SW 1 G 4 29.96 1014.6 0.00
15 05:00 13 11 92 SE 1 G 2 29.94 1013.9 0.00
15 04:00 14 11 88 SSW 2 G 4 29.94 1013.9 0.00
15 03:00 15 12 87 SW 3 G 6 29.95 1014.3 0.00
15 02:00 14 12 90 SSW 3 G 7 29.95 1014.3 0.00
15 01:00 14 12 19 12 90 SSW 2 G 5 29.95 1014.3 0.00
15 00:00 14 12 90 SSW 2 G 4 29.96 1014.6 0.00
14 23:00 14 12 90 SW 3 G 4 29.99 1015.6 0.00
14 22:00 15 12 88 SW 3 G 6 30.00 1016.0 0.00
14 21:00 15 12 87 SW 2 G 3 30.01 1016.3 0.00
14 20:00 16 12 85 SW 3 G 4 30.03 1017.0 0.00
14 19:00 19 13 27 17 78 S 2 G 6 30.05 1017.6 0.00
14 18:00 20 13 73 S 2 G 6 30.06 1018.0 0.00
14 17:00 22 14 72 S 2 G 4 30.06 1018.0 0.00
14 16:00 25 15 66 S 1 G 6 30.07 1018.3 0.00
14 15:00 26 16 65 SW 2 G 6 30.08 1018.7 0.00
14 14:00 26 19 73 SE 2 G 4 30.11 1019.7 0.00
14 13:00 27 18 27 4 67 SW 2 G 6 30.13 1020.4 0.00
14 12:00 25 19 77 SSE 2 G 5 30.16 1021.4 0.00
14 11:00 21 17 84 E 3 G 4 30.21 1023.1 0.00
14 10:00 18 15 86 SE 3 G 7 30.25 1024.4 0.00
14 09:00 12 10 91 SSW 2 G 4 30.27 1025.1 0.00
14 08:00 7 6 97 SSW 3 G 6 30.26 1024.8 0.00
14 07:00 7 7 10 6 98 S 1 G 4 30.27 1025.1 0.00
14 06:00 8 8 98 SW 2 G 4 30.27 1025.1 0.00
14 05:00 8 7 97 SW 2 G 4 30.27 1025.1 0.00
14 04:00 9 8 96 SSW 2 G 4 30.29 1025.8 0.00
14 03:00 9 8 97 SSW 2 G 6 30.33 1027.1 0.00
14 02:00 9 8 97 SSW 2 G 4 30.34 1027.5 0.00
14 01:00 10 9 17 8 94 SW 2 G 4 30.32 1026.8 0.00

Data generated by WxSolution Version 1.9.1.5, Build 2018.05.20.